Time;durP1;ratioP1;P1;durP2;ratioP2;P2;SDS_P1;SDS_P2;PMS_P1;PMS_P2;Temp;Humidity;BMP_temperature;BMP_pressure;BME280_temperature;BME280_humidity;BME280_pressure;Samples;Min_cycle;Max_cycle;Signal;HPM_P1;HPM_P2
2023/07/22 00:01:24;;;;;;;11.65;7.35;;;13.30;99.90;;;;;;5135861;27;20481;-61
2023/07/22 00:03:49;;;;;;;11.77;7.45;;;13.30;99.90;;;;;;5140547;27;20095;-61
2023/07/22 00:06:15;;;;;;;10.18;7.30;;;13.30;99.90;;;;;;5124844;27;20389;-61
2023/07/22 00:08:40;;;;;;;13.93;7.72;;;13.30;99.90;;;;;;5138558;27;20112;-61
2023/07/22 00:11:07;;;;;;;10.15;6.65;;;13.30;99.90;;;;;;5123627;27;20050;-60
2023/07/22 00:13:33;;;;;;;11.45;6.80;;;13.20;99.90;;;;;;5124692;27;20042;-63
2023/07/22 00:16:00;;;;;;;8.73;6.30;;;13.20;99.90;;;;;;5114557;27;20045;-61
2023/07/22 00:18:27;;;;;;;10.60;7.03;;;13.10;99.90;;;;;;5129949;27;20034;-61
2023/07/22 00:20:54;;;;;;;12.98;6.90;;;13.00;99.90;;;;;;5129818;27;20492;-62
2023/07/22 00:23:19;;;;;;;11.85;6.88;;;13.00;99.90;;;;;;5151028;27;20062;-61
2023/07/22 00:25:46;;;;;;;10.52;6.78;;;12.90;99.90;;;;;;5134673;27;20070;-61
2023/07/22 00:28:12;;;;;;;10.68;6.93;;;12.90;99.90;;;;;;5132002;27;20062;-61
2023/07/22 00:30:37;;;;;;;12.90;7.40;;;12.80;99.90;;;;;;5121760;27;20508;-62
2023/07/22 00:33:03;;;;;;;14.13;6.93;;;12.70;99.90;;;;;;5125323;27;20131;-62
2023/07/22 00:35:28;;;;;;;13.38;7.18;;;12.70;99.90;;;;;;5115165;27;20114;-61
2023/07/22 00:37:54;;;;;;;10.65;6.75;;;12.70;99.90;;;;;;5123115;27;20041;-61
2023/07/22 00:40:20;;;;;;;9.55;6.63;;;12.70;99.90;;;;;;5133986;27;20039;-61
2023/07/22 00:42:46;;;;;;;12.60;6.95;;;12.60;99.90;;;;;;5115922;27;20042;-62
2023/07/22 00:45:11;;;;;;;13.70;7.80;;;12.60;99.90;;;;;;5135590;27;20062;-61
2023/07/22 00:47:38;;;;;;;12.30;7.32;;;12.60;99.90;;;;;;5130860;27;20038;-62
2023/07/22 00:50:06;;;;;;;9.95;6.88;;;12.60;99.90;;;;;;5137288;27;20043;-61
2023/07/22 00:52:35;;;;;;;12.93;7.68;;;12.60;99.90;;;;;;5123842;27;20552;-60
2023/07/22 00:55:02;;;;;;;12.38;7.65;;;12.50;99.90;;;;;;5133249;27;20038;-61
2023/07/22 00:57:28;;;;;;;12.30;7.45;;;12.50;99.90;;;;;;5134427;27;20038;-61
2023/07/22 00:59:54;;;;;;;13.20;7.78;;;12.50;99.90;;;;;;5131459;27;20083;-62
2023/07/22 01:02:21;;;;;;;10.18;7.22;;;12.50;99.90;;;;;;5143377;27;20086;-61
2023/07/22 01:04:48;;;;;;;11.57;7.35;;;12.50;99.90;;;;;;5129579;27;20054;-61
2023/07/22 01:07:15;;;;;;;10.43;6.80;;;12.50;99.90;;;;;;5147187;27;20039;-61
2023/07/22 01:09:42;;;;;;;13.45;7.72;;;12.50;99.90;;;;;;5121534;27;20086;-61
2023/07/22 01:12:09;;;;;;;10.88;6.93;;;12.60;99.90;;;;;;5119207;27;20039;-64
2023/07/22 01:14:41;;;;;;;10.35;6.95;;;12.60;99.90;;;;;;5137629;27;20035;-62
2023/07/22 01:17:08;;;;;;;12.23;8.20;;;12.60;99.90;;;;;;5113820;27;20123;-63
2023/07/22 01:19:35;;;;;;;11.98;7.60;;;12.70;99.90;;;;;;5142052;27;20069;-63
2023/07/22 01:22:04;;;;;;;12.25;7.28;;;12.70;99.90;;;;;;5113736;27;20129;-64
2023/07/22 01:24:30;;;;;;;10.50;7.32;;;12.70;99.90;;;;;;5140842;27;20039;-63
2023/07/22 01:26:56;;;;;;;13.93;7.85;;;12.70;99.90;;;;;;5126939;27;20038;-63
2023/07/22 01:29:23;;;;;;;12.20;7.30;;;12.70;99.90;;;;;;5140407;27;20043;-63
2023/07/22 01:31:51;;;;;;;13.98;7.18;;;12.70;99.90;;;;;;5126371;27;20544;-63
2023/07/22 01:34:17;;;;;;;14.52;8.27;;;12.70;99.90;;;;;;5124138;27;20038;-63
2023/07/22 01:36:45;;;;;;;12.10;7.50;;;12.70;99.90;;;;;;5127653;27;20421;-63
2023/07/22 01:39:11;;;;;;;11.55;7.75;;;12.70;99.90;;;;;;5138149;27;20497;-63
2023/07/22 01:41:37;;;;;;;15.10;8.00;;;12.70;99.90;;;;;;5113305;27;20035;-63
2023/07/22 01:44:03;;;;;;;11.27;7.85;;;12.70;99.90;;;;;;5113840;27;20490;-64
2023/07/22 01:46:28;;;;;;;12.75;7.40;;;12.70;99.90;;;;;;5125932;27;20045;-61
2023/07/22 01:48:55;;;;;;;12.35;7.03;;;12.70;99.90;;;;;;5145138;27;20034;-60
2023/07/22 01:51:21;;;;;;;13.13;7.07;;;12.70;99.90;;;;;;5130115;27;20130;-62
2023/07/22 01:53:47;;;;;;;10.77;7.60;;;12.70;99.90;;;;;;5133568;27;20540;-61
2023/07/22 01:56:13;;;;;;;13.80;7.85;;;12.70;99.90;;;;;;5129534;27;20442;-61
2023/07/22 01:58:39;;;;;;;11.50;7.30;;;12.70;99.90;;;;;;5133513;27;20038;-60
2023/07/22 02:01:04;;;;;;;10.63;7.18;;;12.70;99.90;;;;;;5122157;27;20137;-61
2023/07/22 02:03:31;;;;;;;12.55;9.05;;;12.70;99.90;;;;;;5144349;27;20070;-61
2023/07/22 02:06:04;;;;;;;15.10;7.97;;;12.70;99.90;;;;;;5114602;27;20031;-61
2023/07/22 02:08:30;;;;;;;10.75;7.20;;;12.70;99.90;;;;;;5113274;28;20388;-61
2023/07/22 02:11:04;;;;;;;9.90;7.13;;;12.70;99.90;;;;;;5135405;27;20086;-61
2023/07/22 02:13:30;;;;;;;11.48;7.63;;;12.70;99.90;;;;;;5124691;27;20043;-61
2023/07/22 02:15:57;;;;;;;14.30;7.95;;;12.70;99.90;;;;;;5150389;27;20035;-62
2023/07/22 02:18:22;;;;;;;11.88;7.00;;;12.70;99.90;;;;;;5129010;27;20031;-62
2023/07/22 02:20:48;;;;;;;12.70;8.80;;;12.80;99.90;;;;;;5141933;27;20046;-61
2023/07/22 02:23:14;;;;;;;11.73;8.63;;;12.80;99.90;;;;;;5117953;27;20480;-61
2023/07/22 02:25:40;;;;;;;13.65;8.18;;;12.80;99.90;;;;;;5125350;28;20054;-62
2023/07/22 02:28:06;;;;;;;12.63;7.80;;;12.80;99.90;;;;;;5131222;27;20038;-61
2023/07/22 02:30:35;;;;;;;11.63;8.27;;;12.80;99.90;;;;;;5119799;27;20070;-61
2023/07/22 02:33:02;;;;;;;10.98;7.80;;;12.80;99.90;;;;;;5140339;27;20398;-61
2023/07/22 02:35:28;;;;;;;11.77;7.90;;;12.80;99.90;;;;;;5138711;27;20080;-60
2023/07/22 02:37:54;;;;;;;14.55;7.78;;;12.80;99.90;;;;;;5143108;27;20039;-60
2023/07/22 02:40:19;;;;;;;12.27;8.30;;;12.80;99.90;;;;;;5113312;27;20043;-62
2023/07/22 02:42:45;;;;;;;14.38;9.43;;;12.90;99.90;;;;;;5129229;27;20046;-61
2023/07/22 02:45:12;;;;;;;12.57;8.13;;;12.90;99.90;;;;;;5141079;27;20150;-60
2023/07/22 02:47:38;;;;;;;16.30;9.02;;;12.90;99.90;;;;;;5126839;27;20043;-61
2023/07/22 02:50:05;;;;;;;13.20;8.93;;;12.90;99.90;;;;;;5139017;27;20494;-61
2023/07/22 02:52:32;;;;;;;14.48;8.77;;;12.90;99.90;;;;;;5118564;27;20038;-61
2023/07/22 02:55:12;;;;;;;13.27;8.80;;;12.90;99.90;;;;;;5132277;27;20046;-61
2023/07/22 02:57:39;;;;;;;15.32;9.52;;;13.00;99.90;;;;;;5147745;27;20031;-60
2023/07/22 03:00:08;;;;;;;13.88;9.50;;;13.00;99.90;;;;;;5146026;27;20039;-62
2023/07/22 03:02:35;;;;;;;14.15;9.00;;;13.00;99.90;;;;;;5130190;27;20059;-61
2023/07/22 03:05:02;;;;;;;15.15;9.38;;;13.00;99.90;;;;;;5139877;27;20051;-61
2023/07/22 03:07:28;;;;;;;20.20;10.68;;;13.00;99.90;;;;;;5129934;27;20047;-61
2023/07/22 03:09:54;;;;;;;14.95;8.68;;;13.00;99.90;;;;;;5147449;27;20039;-60
2023/07/22 03:12:19;;;;;;;13.90;9.18;;;13.00;99.90;;;;;;5130506;27;20046;-62
2023/07/22 03:14:45;;;;;;;13.38;8.80;;;12.90;99.90;;;;;;5143789;27;20037;-61
2023/07/22 03:17:14;;;;;;;14.27;8.60;;;13.00;99.90;;;;;;5119291;27;20370;-61
2023/07/22 03:19:40;;;;;;;14.68;9.10;;;13.00;99.90;;;;;;5139908;27;20035;-61
2023/07/22 03:22:06;;;;;;;16.52;9.95;;;13.00;99.90;;;;;;5116118;27;20811;-61
2023/07/22 03:24:31;;;;;;;13.88;8.75;;;13.00;99.90;;;;;;5135426;27;20039;-62
2023/07/22 03:26:57;;;;;;;14.13;9.52;;;13.00;99.90;;;;;;5139867;27;20030;-62
2023/07/22 03:29:24;;;;;;;14.57;10.07;;;13.00;99.90;;;;;;5152219;27;20057;-61
2023/07/22 03:31:50;;;;;;;16.65;9.75;;;13.00;99.90;;;;;;5133658;27;20154;-61
2023/07/22 03:34:15;;;;;;;18.80;10.63;;;13.00;99.90;;;;;;5135096;27;20042;-60
2023/07/22 03:36:41;;;;;;;15.05;9.38;;;13.00;99.90;;;;;;5143687;27;20027;-61
2023/07/22 03:39:07;;;;;;;14.57;9.63;;;13.10;99.90;;;;;;5148325;27;20109;-61
2023/07/22 03:41:33;;;;;;;14.85;9.68;;;13.10;99.90;;;;;;5118205;27;20106;-62
2023/07/22 03:43:59;;;;;;;17.52;9.55;;;13.10;99.90;;;;;;5124449;27;20113;-62
2023/07/22 03:46:24;;;;;;;18.45;10.13;;;13.10;99.90;;;;;;5147875;27;20058;-60
2023/07/22 03:48:50;;;;;;;13.40;9.00;;;13.10;99.90;;;;;;5147899;27;20489;-61
2023/07/22 03:51:15;;;;;;;14.25;8.98;;;13.20;99.90;;;;;;5154309;27;20042;-61
2023/07/22 03:53:41;;;;;;;14.30;9.00;;;13.10;99.90;;;;;;5140285;27;20035;-62
2023/07/22 03:56:07;;;;;;;14.43;9.38;;;13.20;99.90;;;;;;5125582;27;20519;-61
2023/07/22 03:58:32;;;;;;;18.40;9.48;;;13.20;99.90;;;;;;5122279;27;20065;-61
2023/07/22 04:00:58;;;;;;;13.73;9.80;;;13.20;99.90;;;;;;5124686;27;20062;-61
2023/07/22 04:03:23;;;;;;;17.48;10.02;;;13.20;99.90;;;;;;5123185;27;20080;-61
2023/07/22 04:05:56;;;;;;;16.23;9.88;;;13.30;99.90;;;;;;5123791;27;20386;-61
2023/07/22 04:08:22;;;;;;;15.38;9.90;;;13.30;99.90;;;;;;5119266;27;20049;-62
2023/07/22 04:10:52;;;;;;;14.60;9.27;;;13.30;99.90;;;;;;5143075;27;20397;-62
2023/07/22 04:13:17;;;;;;;15.82;9.18;;;13.30;99.90;;;;;;5124233;27;20505;-61
2023/07/22 04:15:44;;;;;;;12.80;9.48;;;13.30;99.90;;;;;;5143254;27;20127;-62
2023/07/22 04:18:10;;;;;;;14.68;9.43;;;13.30;99.90;;;;;;5148084;27;20046;-61
2023/07/22 04:20:35;;;;;;;13.52;8.98;;;13.30;99.90;;;;;;5127374;27;20043;-60
2023/07/22 04:23:01;;;;;;;13.50;8.80;;;13.30;99.90;;;;;;5124314;27;20043;-61
2023/07/22 04:25:27;;;;;;;13.65;9.70;;;13.30;99.90;;;;;;5131738;27;20366;-61
2023/07/22 04:27:52;;;;;;;12.85;9.65;;;13.40;99.90;;;;;;5123078;27;20042;-61
2023/07/22 04:30:20;;;;;;;13.75;9.25;;;13.40;99.90;;;;;;5122848;27;20046;-62
2023/07/22 04:32:49;;;;;;;13.55;9.63;;;13.40;99.90;;;;;;5132151;27;20489;-61
2023/07/22 04:35:17;;;;;;;15.50;9.50;;;13.40;99.90;;;;;;5116236;27;20114;-61
2023/07/22 04:37:44;;;;;;;17.92;9.80;;;13.50;99.90;;;;;;5123093;27;20045;-62
2023/07/22 04:40:13;;;;;;;12.48;9.10;;;13.50;99.90;;;;;;5119272;27;20055;-62
2023/07/22 04:42:40;;;;;;;14.10;9.77;;;13.50;99.90;;;;;;5139663;27;20045;-62
2023/07/22 04:45:07;;;;;;;13.65;8.90;;;13.50;99.90;;;;;;5141358;27;20066;-61
2023/07/22 04:47:32;;;;;;;14.88;9.65;;;13.60;99.90;;;;;;5142606;27;20038;-61
2023/07/22 04:49:58;;;;;;;13.23;9.55;;;13.60;99.90;;;;;;5124614;27;20379;-62
2023/07/22 04:52:23;;;;;;;14.35;9.90;;;13.60;99.90;;;;;;5120864;27;20127;-60
2023/07/22 04:54:49;;;;;;;16.85;9.23;;;13.60;99.90;;;;;;5122692;27;20046;-61
2023/07/22 04:57:16;;;;;;;16.33;9.95;;;13.60;99.90;;;;;;5121156;27;20035;-60
2023/07/22 04:59:42;;;;;;;14.20;9.75;;;13.60;99.90;;;;;;5101920;27;20054;-62
2023/07/22 05:02:08;;;;;;;14.68;9.43;;;13.60;99.90;;;;;;5124761;27;20054;-62
2023/07/22 05:04:34;;;;;;;16.17;10.40;;;13.60;99.90;;;;;;5119093;27;20070;-61
2023/07/22 05:07:00;;;;;;;18.38;10.80;;;13.60;99.90;;;;;;5141019;27;20038;-60
2023/07/22 05:09:26;;;;;;;14.57;9.30;;;13.70;99.90;;;;;;5132319;27;20049;-61
2023/07/22 05:11:51;;;;;;;16.25;11.43;;;13.70;99.90;;;;;;5123072;27;20031;-61
2023/07/22 05:14:17;;;;;;;15.30;10.35;;;13.70;99.90;;;;;;5118729;27;20405;-63
2023/07/22 05:16:42;;;;;;;15.05;10.23;;;13.70;99.90;;;;;;5119362;27;20485;-61
2023/07/22 05:19:08;;;;;;;15.55;10.15;;;13.70;99.90;;;;;;5146692;27;20041;-61
2023/07/22 05:21:34;;;;;;;16.60;10.57;;;13.70;99.90;;;;;;5141906;27;20155;-61
2023/07/22 05:23:59;;;;;;;13.98;9.80;;;13.80;99.90;;;;;;5127796;27;20051;-60
2023/07/22 05:26:25;;;;;;;15.90;10.35;;;13.80;99.90;;;;;;5100428;27;20039;-61
2023/07/22 05:28:51;;;;;;;17.15;11.00;;;13.80;99.90;;;;;;5116142;27;20036;-61
2023/07/22 05:31:16;;;;;;;15.50;10.60;;;13.80;99.90;;;;;;5142272;27;20046;-61
2023/07/22 05:33:42;;;;;;;13.75;10.02;;;13.70;99.90;;;;;;5138324;27;20501;-61
2023/07/22 05:36:08;;;;;;;15.18;10.45;;;13.70;99.90;;;;;;5145213;27;20194;-61
2023/07/22 05:38:33;;;;;;;16.52;10.32;;;13.80;99.90;;;;;;5129006;27;20058;-62
2023/07/22 05:40:59;;;;;;;15.50;10.20;;;13.80;99.90;;;;;;5135994;27;20059;-63
2023/07/22 05:43:25;;;;;;;13.02;9.50;;;13.80;99.90;;;;;;5129752;27;20041;-60
2023/07/22 05:45:50;;;;;;;15.02;9.90;;;13.80;99.90;;;;;;5132350;27;20382;-61
2023/07/22 05:48:16;;;;;;;14.73;10.55;;;13.80;99.90;;;;;;5122456;27;20042;-60
2023/07/22 05:50:42;;;;;;;13.50;10.32;;;13.80;99.90;;;;;;5130594;27;20534;-62
2023/07/22 05:53:07;;;;;;;16.15;10.20;;;13.70;99.90;;;;;;5126556;27;20030;-63
2023/07/22 05:55:33;;;;;;;17.65;10.75;;;13.70;99.90;;;;;;5129665;27;20070;-60
2023/07/22 05:58:05;;;;;;;16.60;10.68;;;13.70;99.90;;;;;;5122300;27;20042;-62
2023/07/22 06:00:31;;;;;;;15.88;10.65;;;13.70;99.90;;;;;;5131450;27;20054;-61
2023/07/22 06:02:57;;;;;;;17.73;10.38;;;13.70;99.90;;;;;;5116042;27;20061;-61
2023/07/22 06:05:22;;;;;;;17.63;10.82;;;13.70;99.90;;;;;;5113471;27;20039;-62
2023/07/22 06:07:48;;;;;;;14.48;10.20;;;13.70;99.90;;;;;;5143617;27;20043;-61
2023/07/22 06:10:14;;;;;;;18.33;11.20;;;13.80;99.90;;;;;;5118076;27;20051;-61
2023/07/22 06:12:41;;;;;;;17.20;10.90;;;13.80;99.90;;;;;;5123308;27;20160;-60
2023/07/22 06:15:07;;;;;;;18.70;11.80;;;13.80;99.90;;;;;;5120984;27;20486;-60
2023/07/22 06:17:33;;;;;;;18.38;11.93;;;13.80;99.90;;;;;;5133950;27;20041;-61
2023/07/22 06:19:59;;;;;;;19.75;12.75;;;13.80;99.90;;;;;;5125554;27;20373;-63
2023/07/22 06:22:24;;;;;;;19.13;11.88;;;13.90;99.90;;;;;;5125105;27;20039;-64
2023/07/22 06:24:50;;;;;;;20.17;12.98;;;13.90;99.90;;;;;;5148440;27;20043;-63
2023/07/22 06:27:16;;;;;;;18.70;12.13;;;13.90;99.90;;;;;;5140733;27;20070;-61
2023/07/22 06:29:41;;;;;;;17.55;11.95;;;14.00;99.90;;;;;;5120668;27;20476;-61
2023/07/22 06:32:07;;;;;;;19.85;12.77;;;14.00;99.90;;;;;;5124939;27;20061;-65
2023/07/22 06:34:33;;;;;;;16.60;11.52;;;14.10;99.90;;;;;;5126269;27;20045;-63
2023/07/22 06:36:58;;;;;;;19.05;12.13;;;14.10;99.90;;;;;;5120785;27;20070;-64
2023/07/22 06:39:24;;;;;;;21.70;13.30;;;14.20;99.90;;;;;;5126047;27;20070;-65
2023/07/22 06:41:50;;;;;;;19.30;12.30;;;14.30;99.90;;;;;;5123368;27;20087;-64
2023/07/22 06:44:15;;;;;;;21.17;12.90;;;14.40;99.90;;;;;;5127177;27;20457;-60
2023/07/22 06:46:41;;;;;;;21.98;14.13;;;14.50;99.90;;;;;;5121465;27;20441;-62
2023/07/22 06:49:07;;;;;;;21.42;14.18;;;14.70;99.90;;;;;;5140507;27;20096;-62
2023/07/22 06:51:32;;;;;;;21.73;14.60;;;14.80;99.90;;;;;;5141670;27;20462;-61
2023/07/22 06:53:58;;;;;;;21.92;14.13;;;14.80;99.90;;;;;;5120944;27;20039;-61
2023/07/22 06:56:26;;;;;;;21.35;13.63;;;14.90;99.90;;;;;;5140263;27;20554;-61
2023/07/22 06:58:51;;;;;;;20.70;13.73;;;14.90;99.90;;;;;;5126949;27;20039;-61
2023/07/22 07:01:17;;;;;;;21.60;14.60;;;15.00;99.90;;;;;;5125584;27;20061;-60
2023/07/22 07:03:43;;;;;;;23.15;14.60;;;15.00;99.90;;;;;;5126266;27;20074;-61
2023/07/22 07:06:08;;;;;;;20.98;14.23;;;15.10;99.90;;;;;;5120424;27;20481;-63
2023/07/22 07:08:34;;;;;;;22.25;13.80;;;15.20;99.90;;;;;;5120057;27;20091;-62
2023/07/22 07:11:01;;;;;;;20.77;14.63;;;15.20;99.90;;;;;;5146495;27;20047;-63
2023/07/22 07:13:26;;;;;;;21.15;13.65;;;15.30;99.90;;;;;;5135367;27;20035;-63
2023/07/22 07:15:52;;;;;;;22.40;14.38;;;15.30;99.90;;;;;;5119474;27;20059;-65
2023/07/22 07:18:18;;;;;;;21.10;13.68;;;15.40;99.90;;;;;;5122376;27;20035;-61
2023/07/22 07:20:44;;;;;;;21.55;14.05;;;15.40;99.90;;;;;;5134275;27;20049;-61
2023/07/22 07:23:10;;;;;;;22.27;14.35;;;15.40;99.90;;;;;;5123215;27;20047;-61
2023/07/22 07:25:35;;;;;;;18.48;12.48;;;15.40;99.90;;;;;;5131930;27;20034;-61
2023/07/22 07:28:01;;;;;;;23.77;13.65;;;15.40;99.90;;;;;;5135142;27;20152;-61
2023/07/22 07:30:27;;;;;;;20.60;13.40;;;15.40;99.90;;;;;;5122423;27;20122;-61
2023/07/22 07:32:52;;;;;;;19.10;12.82;;;15.50;99.90;;;;;;5134288;27;20035;-61
2023/07/22 07:35:19;;;;;;;18.85;12.93;;;15.70;99.90;;;;;;5125494;27;20499;-61
2023/07/22 07:37:44;;;;;;;17.70;12.63;;;15.80;99.90;;;;;;5116049;27;20383;-62
2023/07/22 07:40:11;;;;;;;19.95;13.27;;;15.80;99.90;;;;;;5121371;27;20046;-62
2023/07/22 07:42:36;;;;;;;18.65;12.85;;;15.90;99.90;;;;;;5134747;27;20050;-60
2023/07/22 07:45:03;;;;;;;19.90;12.65;;;15.90;99.90;;;;;;5142669;27;20035;-61
2023/07/22 07:47:28;;;;;;;19.58;13.35;;;16.00;99.90;;;;;;5135091;27;20106;-62
2023/07/22 07:49:54;;;;;;;18.33;13.43;;;16.00;99.90;;;;;;5128309;27;20043;-62
2023/07/22 07:52:19;;;;;;;20.27;13.23;;;16.00;99.90;;;;;;5136561;27;20485;-61
2023/07/22 07:54:45;;;;;;;20.67;13.40;;;16.00;99.90;;;;;;5136706;27;20477;-60
2023/07/22 07:57:11;;;;;;;19.77;13.05;;;16.10;99.90;;;;;;5127868;27;20493;-61
2023/07/22 07:59:36;;;;;;;22.52;13.45;;;16.10;99.90;;;;;;5119744;27;20043;-61
2023/07/22 08:02:08;;;;;;;21.30;13.13;;;16.10;99.90;;;;;;5120436;27;20043;-61
2023/07/22 08:04:34;;;;;;;19.58;13.73;;;16.10;99.90;;;;;;5151925;27;20093;-61
2023/07/22 08:07:00;;;;;;;19.58;13.35;;;16.10;99.90;;;;;;5116045;27;20066;-61
2023/07/22 08:09:26;;;;;;;18.90;12.73;;;16.10;99.90;;;;;;5127564;27;20103;-62
2023/07/22 08:11:51;;;;;;;20.60;13.57;;;16.10;99.90;;;;;;5131320;27;21507;-61
2023/07/22 08:14:18;;;;;;;19.45;13.23;;;16.10;99.90;;;;;;5122656;27;20039;-60
2023/07/22 08:16:44;;;;;;;19.92;13.20;;;16.10;99.90;;;;;;5123461;27;20034;-61
2023/07/22 08:19:09;;;;;;;19.25;13.15;;;16.10;99.90;;;;;;5125945;27;20480;-62
2023/07/22 08:21:35;;;;;;;17.75;13.73;;;16.10;99.90;;;;;;5117948;27;20035;-61
2023/07/22 08:24:01;;;;;;;19.17;13.70;;;16.20;99.90;;;;;;5147683;27;20113;-62
2023/07/22 08:26:28;;;;;;;19.35;13.20;;;16.30;99.90;;;;;;5151909;27;20035;-62
2023/07/22 08:28:53;;;;;;;20.88;12.20;;;16.20;99.90;;;;;;5140173;27;20098;-62
2023/07/22 08:31:19;;;;;;;19.05;12.75;;;16.20;99.90;;;;;;5130589;27;20125;-61
2023/07/22 08:33:44;;;;;;;19.20;13.27;;;16.20;99.90;;;;;;5141444;27;20070;-64
2023/07/22 08:36:10;;;;;;;17.95;12.55;;;16.10;99.90;;;;;;5121529;27;20046;-63
2023/07/22 08:38:36;;;;;;;17.42;11.95;;;16.00;99.90;;;;;;5145357;27;20038;-64
2023/07/22 08:41:02;;;;;;;18.00;12.50;;;15.90;99.90;;;;;;5148750;27;20118;-63
2023/07/22 08:43:29;;;;;;;18.20;11.88;;;15.80;99.90;;;;;;5119917;27;20059;-63
2023/07/22 08:45:58;;;;;;;17.77;11.57;;;15.70;99.90;;;;;;5119203;27;20050;-63
2023/07/22 08:48:29;;;;;;;17.95;12.43;;;15.70;99.90;;;;;;5135944;27;20039;-63
2023/07/22 08:51:16;;;;;;;20.10;12.40;;;15.60;99.90;;;;;;5116568;27;20043;-62
2023/07/22 08:53:47;;;;;;;18.35;11.88;;;15.60;99.90;;;;;;5134144;27;20038;-61
2023/07/22 08:56:12;;;;;;;19.17;11.52;;;15.60;99.90;;;;;;5132260;27;20042;-61
2023/07/22 08:58:41;;;;;;;17.35;12.98;;;15.70;99.90;;;;;;5117903;27;20046;-62
2023/07/22 09:01:07;;;;;;;15.40;10.48;;;15.70;99.90;;;;;;5126412;27;20042;-62
2023/07/22 09:03:33;;;;;;;15.85;10.45;;;15.80;99.90;;;;;;5118613;27;20069;-64
2023/07/22 09:05:59;;;;;;;13.18;9.60;;;15.80;99.90;;;;;;5112953;27;20046;-63
2023/07/22 09:08:25;;;;;;;13.80;9.75;;;15.90;99.90;;;;;;5129085;27;20039;-65
2023/07/22 09:10:51;;;;;;;12.85;8.38;;;15.90;99.90;;;;;;5129191;27;20046;-64
2023/07/22 09:13:18;;;;;;;12.57;7.90;;;15.90;99.90;;;;;;5146443;27;20550;-63
2023/07/22 09:15:44;;;;;;;13.27;8.50;;;15.90;99.90;;;;;;5116852;27;20393;-63
2023/07/22 09:18:10;;;;;;;13.02;8.88;;;15.90;99.90;;;;;;5137622;27;20031;-63
2023/07/22 09:20:36;;;;;;;9.25;6.30;;;16.00;99.90;;;;;;5152188;27;20114;-63
2023/07/22 09:23:02;;;;;;;6.25;5.07;;;16.00;99.90;;;;;;5133916;27;20136;-64
2023/07/22 09:25:29;;;;;;;7.03;4.85;;;16.10;99.90;;;;;;5134637;27;20047;-63
2023/07/22 09:27:58;;;;;;;6.00;4.65;;;16.10;99.90;;;;;;5137346;27;20073;-63
2023/07/22 09:30:38;;;;;;;5.57;4.75;;;16.30;99.90;;;;;;5134093;27;20043;-64
2023/07/22 09:33:20;;;;;;;5.18;4.05;;;16.40;99.90;;;;;;5136107;27;20039;-64
2023/07/22 09:35:47;;;;;;;5.45;4.38;;;16.60;99.90;;;;;;5147734;27;20109;-63
2023/07/22 09:38:15;;;;;;;5.07;4.00;;;16.70;99.90;;;;;;5129343;27;20034;-64
2023/07/22 09:40:41;;;;;;;5.75;4.43;;;16.70;99.90;;;;;;5131915;27;20553;-63
2023/07/22 09:43:11;;;;;;;6.65;4.63;;;16.80;99.90;;;;;;5151610;27;20161;-61
2023/07/22 09:45:40;;;;;;;7.30;4.85;;;16.80;99.90;;;;;;5131953;27;20042;-61
2023/07/22 09:48:08;;;;;;;5.97;4.07;;;16.80;99.90;;;;;;5126422;27;20030;-61
2023/07/22 09:50:36;;;;;;;5.22;4.40;;;16.80;99.90;;;;;;5102301;27;20472;-62
2023/07/22 09:53:03;;;;;;;5.53;4.22;;;16.70;99.90;;;;;;5116347;27;20042;-62
2023/07/22 09:55:30;;;;;;;7.40;4.97;;;16.60;99.90;;;;;;5129808;27;20042;-60
2023/07/22 09:57:57;;;;;;;6.07;4.57;;;16.50;99.90;;;;;;5132775;27;20034;-61
2023/07/22 10:00:29;;;;;;;7.07;4.68;;;16.40;99.90;;;;;;5117602;27;20066;-62
2023/07/22 10:02:57;;;;;;;6.95;4.72;;;16.30;99.90;;;;;;5151497;27;20058;-62
2023/07/22 10:05:25;;;;;;;6.43;4.55;;;16.30;99.90;;;;;;5115898;27;20046;-62
2023/07/22 10:07:55;;;;;;;7.68;4.93;;;16.30;99.90;;;;;;5151634;27;20034;-63
2023/07/22 10:10:25;;;;;;;8.48;5.15;;;16.40;99.90;;;;;;5117641;28;20050;-62
2023/07/22 10:12:51;;;;;;;7.75;5.40;;;16.40;99.90;;;;;;5128938;27;20420;-62
2023/07/22 10:15:20;;;;;;;6.15;5.18;;;16.50;99.90;;;;;;5147109;27;20502;-62
2023/07/22 10:17:46;;;;;;;6.90;4.85;;;16.60;99.90;;;;;;5117140;28;20038;-63
2023/07/22 10:20:16;;;;;;;7.05;5.22;;;16.60;99.90;;;;;;5108999;27;20034;-63
2023/07/22 10:22:46;;;;;;;8.20;5.47;;;16.60;99.90;;;;;;5113139;27;20542;-62
2023/07/22 10:25:17;;;;;;;7.45;5.10;;;16.70;99.90;;;;;;5129981;27;20042;-62
2023/07/22 10:27:43;;;;;;;10.13;5.35;;;16.70;99.90;;;;;;5126197;28;20042;-61
2023/07/22 10:30:11;;;;;;;10.50;5.18;;;16.70;99.90;;;;;;5120629;27;20126;-61
2023/07/22 10:32:39;;;;;;;8.48;5.78;;;16.70;99.90;;;;;;5128048;27;20036;-62
2023/07/22 10:35:10;;;;;;;7.85;5.72;;;16.80;99.90;;;;;;5119811;28;20145;-62
2023/07/22 10:37:36;;;;;;;8.32;6.38;;;16.70;99.90;;;;;;5132008;27;20045;-61
2023/07/22 10:40:24;;;;;;;8.52;6.32;;;16.70;99.90;;;;;;5134787;27;20082;-61
2023/07/22 10:42:54;;;;;;;8.65;6.53;;;16.60;99.90;;;;;;5103615;28;20086;-62
2023/07/22 10:45:28;;;;;;;9.88;6.88;;;16.60;99.90;;;;;;5131974;27;20126;-63
2023/07/22 10:48:12;;;;;;;11.55;7.70;;;16.50;99.90;;;;;;5132065;27;20125;-62
2023/07/22 10:50:48;;;;;;;13.02;8.23;;;16.40;99.90;;;;;;5133277;27;20095;-62
2023/07/22 10:53:20;;;;;;;11.98;8.32;;;16.30;99.90;;;;;;5125365;27;20043;-61
2023/07/22 10:56:14;;;;;;;17.50;9.73;;;16.10;99.90;;;;;;5125845;28;20031;-63
2023/07/22 10:58:48;;;;;;;17.52;8.65;;;15.80;99.90;;;;;;5139600;27;20050;-63
2023/07/22 11:01:30;;;;;;;11.05;7.35;;;15.60;99.90;;;;;;5127841;27;20042;-61
2023/07/22 11:04:22;;;;;;;17.08;8.68;;;15.60;99.90;;;;;;5124636;27;20059;-62
2023/07/22 11:06:48;;;;;;;15.43;9.27;;;15.50;99.90;;;;;;5117282;28;20107;-62
2023/07/22 11:09:29;;;;;;;11.93;8.20;;;15.50;99.90;;;;;;5120892;27;20047;-62
2023/07/22 11:12:00;;;;;;;12.68;8.68;;;15.40;99.90;;;;;;5124101;27;20047;-63
2023/07/22 11:14:30;;;;;;;12.63;8.85;;;15.30;99.90;;;;;;5117550;27;20385;-62
2023/07/22 11:17:07;;;;;;;13.43;9.40;;;15.30;99.90;;;;;;5116581;27;20039;-62
2023/07/22 11:19:34;;;;;;;12.43;8.25;;;15.40;99.90;;;;;;5124794;27;20123;-64
2023/07/22 11:22:00;;;;;;;11.93;9.27;;;15.50;99.90;;;;;;5123596;27;20425;-62
2023/07/22 11:24:25;;;;;;;13.20;9.23;;;15.50;99.90;;;;;;5140289;27;20030;-62
2023/07/22 11:26:52;;;;;;;15.20;10.48;;;15.60;99.90;;;;;;5136194;27;20053;-64
2023/07/22 11:29:18;;;;;;;11.82;9.32;;;15.70;99.90;;;;;;5154693;27;20035;-62
2023/07/22 11:31:46;;;;;;;11.75;9.48;;;15.80;99.90;;;;;;5122603;27;20042;-64
2023/07/22 11:34:14;;;;;;;13.80;10.52;;;15.80;99.90;;;;;;5132140;27;20039;-62
2023/07/22 11:36:40;;;;;;;12.30;9.60;;;15.90;99.90;;;;;;5130166;27;20040;-62
2023/07/22 11:39:07;;;;;;;11.60;10.02;;;15.90;99.90;;;;;;5108503;27;20392;-63
2023/07/22 11:41:34;;;;;;;13.23;9.40;;;15.90;99.90;;;;;;5118471;27;20057;-63
2023/07/22 11:44:01;;;;;;;12.40;10.15;;;15.90;99.90;;;;;;5136661;27;20512;-63
2023/07/22 11:46:27;;;;;;;13.38;10.05;;;16.00;99.90;;;;;;5120812;27;20035;-61
2023/07/22 11:48:54;;;;;;;12.88;10.13;;;16.00;99.90;;;;;;5136067;27;20046;-63
2023/07/22 11:51:24;;;;;;;12.20;9.60;;;16.00;99.90;;;;;;5135738;27;20074;-63
2023/07/22 11:53:52;;;;;;;14.38;10.60;;;16.00;99.90;;;;;;5154615;27;20046;-63
2023/07/22 11:56:25;;;;;;;11.10;9.07;;;16.00;99.90;;;;;;5145290;27;20504;-62
2023/07/22 11:58:56;;;;;;;10.98;9.20;;;16.00;99.90;;;;;;5124383;27;20111;-62
2023/07/22 12:01:22;;;;;;;11.50;8.88;;;16.00;99.90;;;;;;5116485;27;20035;-62
2023/07/22 12:03:49;;;;;;;11.02;9.55;;;16.00;99.90;;;;;;5130732;27;20059;-62
2023/07/22 12:06:15;;;;;;;12.40;10.38;;;16.00;99.90;;;;;;5132119;27;20046;-61
2023/07/22 12:08:49;;;;;;;13.05;11.65;;;16.10;99.90;;;;;;5130682;27;20512;-63
2023/07/22 12:11:18;;;;;;;15.85;12.52;;;16.10;99.90;;;;;;5114857;27;20118;-62
2023/07/22 12:13:50;;;;;;;14.27;12.75;;;16.00;99.90;;;;;;5114928;27;20501;-63
2023/07/22 12:16:22;;;;;;;15.63;11.80;;;16.00;99.90;;;;;;5120454;27;20469;-63
2023/07/22 12:18:49;;;;;;;13.90;12.30;;;15.90;99.90;;;;;;5129285;27;20474;-62
2023/07/22 12:21:15;;;;;;;12.50;11.30;;;15.90;99.90;;;;;;5129066;27;20056;-64
2023/07/22 12:23:42;;;;;;;14.30;11.80;;;15.90;99.90;;;;;;5117017;27;20035;-62
2023/07/22 12:26:08;;;;;;;11.10;10.00;;;15.80;99.90;;;;;;5121728;27;20039;-63
2023/07/22 12:28:34;;;;;;;12.13;9.80;;;15.80;99.90;;;;;;5113514;27;20378;-62
2023/07/22 12:31:00;;;;;;;9.85;8.85;;;15.70;99.90;;;;;;5137968;27;20043;-63
2023/07/22 12:33:27;;;;;;;10.98;9.27;;;15.60;99.90;;;;;;5114307;27;20039;-62